Los Angeles, CA (90075)

7:51 AM PDT on October 01, 2014 (GMT -0700)
CBS Radio Miracle Mile | Change Station
CLOSE
Current Station
Personal Weather Station
Location: Los Angeles, CA
Elevation: 292 ft
Nearby Weather Stations
Active Advisory: Special Statement

Elev 292 ft 34.06 °N, 118.35 °W | Updated 44 seconds ago

Clear
Clear
63.5 °F
Feels Like 63.5 °F
N
1.0
Wind Variable Wind from South

Today
High -- | Low -- °F
--% Chance of Precip.
Yesterday
High -- | Low -- °F
Precip. -- in
6:47 AM 6:37 PM
Waxing Crescent, 48% visible
Pressure 29.86 in
Visibility 10.0 miles
Clouds Clear
Dew Point 60 °F
Humidity 90%
Rainfall 0.00 in
Snow Depth 1 in , 0 in , 1 in
UV 1 out of 12
Pollen 5.50 out of 12
Ozone Good
PM2.5 Moderate
Flu Activity Not available.
METAR KCQT 301447Z AUTO 00000KT 10SM CLR 19/13 A2986 RMK AO2 SLP109 T01940128 51006

More Conditions Fewer Conditions

Pressure 29.86 in
Visibility 10.0 miles
Clouds Clear
Dew Point 60 °F
Humidity 90%
Rainfall 0.00 in
Snow Depth 1 in , 0 in , 1 in
UV 1 out of 12
Pollen 5.50 out of 12
Ozone Good
PM2.5 Moderate
Flu Activity Not available.
METAR KCQT 301447Z AUTO 00000KT 10SM CLR 19/13 A2986 RMK AO2 SLP109 T01940128 51006

More Conditions Fewer Conditions

10-Day Weather Forecast

Almanac

Astronomy

Oct. 01, 2014 Rise Set
Actual Time 6:47 AM PDT 6:37 PM PDT
Civil Twilight 6:22 AM PDT 7:02 PM PDT
Nautical Twilight 5:53 AM PDT 7:31 PM PDT
Astronomical Twilight 5:24 AM PDT 8:00 PM PDT
Moon 1:41 PM PDT No Moon Set
Length of Visible Light 12h 39m
Length of Day
11h 49m
Tomorrow will be 2m 6s shorter.
Waxing Crescent, 48% of the Moon is Illuminated
Today
Waxing Crescent
Oct 1
First Quarter
Oct 8
Full
Oct 15
Last Quarter
Oct 23
New

Today's Extremes

State Highs State Lows

Community

WunderPhotos

Upload Photos

1,757,960 photos uploaded!

Nearby

Air Quality

  Air Quality AQ Index Pollutant
Yesterday Good
PM10
Yesterday Moderate
OZONE
Current Moderate
PM2.5
Current Good
OZONE
Wednesday Good
PM10
Wednesday Good
OZONE
Wednesday Good
CO
Wednesday Good
NO2

Snow Depth

Station Depth Elevation
Spratt Creek 1 in 6200 ft
Independence Creek 0 in 6500 ft
Monitor Pass 1 in 8350 ft
Leavitt Lake 2 in 9400 ft
Echo Peak 1 in 7800 ft

Earthquake Activity

City Distance Mag. Time & Date
Avalon, California 67 miles 2.6 1:28 PM PDT
2014-09-30
Minimum magnitude displayed is 2.5.

Coastal Water Temperatures

Place Temperature
Santa Monica Pier 69.1 °F
Los Angeles, CA 66.9 °F
La Jolla, CA 72.0 °F

Nearby Weather Stations